Date,TemperatureHighF,TemperatureAvgF,TemperatureLowF,DewpointHighF,DewpointAvgF,DewpointLowF,HumidityHigh,HumidityAvg,HumidityLow,PressureMaxIn,PressureMinIn,WindSpeedMaxMPH,WindSpeedAvgMPH,GustSpeedMaxMPH,PrecipitationSumIn
2013-3-1,81.0,81.0,81.0,80.0,80.0,80.0,98,98,98,29.97,29.97,11,11,0,0.00
2013-3-2,81.0,81.0,81.0,80.0,80.0,80.0,99,99,99,29.94,29.88,17,13,0,0.00
2013-3-3,79.0,78.2,77.0,79.0,7.0,-99.9,99,59,98,29.94,29.88,17,17,0,0.00
2013-3-4,79.0,78.1,77.0,79.0,-0.7,-99.9,99,55,98,30.00,29.97,11,10,0,0.00
2013-3-5,79.0,78.7,77.0,79.0,53.4,-99.9,99,85,99,30.00,29.94,20,20,0,0.00
2013-3-6,79.0,79.0,79.0,78.0,-55.4,-99.9,98,24,98,29.97,29.94,24,23,0,0.00
2013-3-7,81.0,80.0,79.0,80.0,-20.2,-99.9,99,44,98,30.00,29.97,23,15,0,0.00
2013-3-8,77.0,77.0,77.0,-99.9,-99.9,-99.9,0,0,100,30.00,30.00,11,11,0,0.00
2013-3-9,81.0,78.5,77.0,80.0,-33.6,-99.9,99,36,99,30.03,30.00,14,9,0,0.00
2013-3-10,79.0,78.7,77.0,79.0,-52.2,-99.9,99,26,99,30.03,29.94,17,13,0,0.00
2013-3-11,81.0,80.5,79.0,79.0,-52.2,-99.9,99,26,99,29.94,29.88,22,20,0,0.00
2013-3-12,79.0,77.8,77.0,79.0,-28.3,-99.9,99,40,99,29.94,29.88,38,27,0,0.00
2013-3-13,79.0,77.6,77.0,77.0,-59.1,-99.9,99,23,99,30.00,29.94,38,26,0,0.00
2013-3-14,77.0,77.0,77.0,-99.9,-99.9,-99.9,0,0,100,29.97,29.97,11,11,0,0.00
2013-3-15,79.0,77.7,77.0,79.0,-28.0,-99.9,99,40,99,30.00,29.94,23,16,0,0.00
2013-3-16,79.0,77.7,77.0,79.0,-33.3,-99.9,99,37,99,30.06,29.97,26,17,0,0.00
2013-3-17,77.0,77.0,77.0,-99.9,-99.9,-99.9,0,0,100,30.06,30.03,26,26,0,0.00
2013-3-18,79.0,77.7,77.0,79.0,-34.4,-99.9,99,36,99,30.03,30.00,26,26,0,0.00
2013-3-19,79.0,78.2,77.0,79.0,-71.1,-99.9,99,16,99,30.00,29.94,29,19,0,0.00
2013-3-20,79.0,75.9,68.0,77.0,-79.1,-99.9,99,12,99,29.94,29.85,30,27,0,0.00
2013-3-21,82.0,72.2,68.0,-99.9,-99.9,-99.9,0,0,100,29.97,29.91,23,22,0,0.00
2013-3-22,79.0,79.0,79.0,-99.9,-99.9,-99.9,0,0,100,30.03,29.94,16,16,0,0.00
2013-3-23,79.0,79.0,79.0,-99.9,-99.9,-99.9,0,0,100,30.03,30.00,16,16,0,0.00
2013-3-24,79.0,79.0,79.0,-99.9,-99.9,-99.9,0,0,100,30.00,29.94,22,19,0,0.00
2013-3-25,81.0,78.8,77.0,77.0,-36.2,-99.9,99,36,99,29.97,29.88,24,22,0,0.00
2013-3-26,81.0,80.2,79.0,78.0,-86.7,-99.9,98,7,98,29.97,29.94,30,24,0,0.00
2013-3-27,79.0,77.3,77.0,77.0,-7.0,-99.9,100,52,99,30.00,29.94,30,20,0,0.00
2013-3-28,79.0,78.2,77.0,79.0,-67.4,-99.9,99,18,99,30.03,30.00,16,14,0,0.00
2013-3-29,79.0,75.9,73.0,-99.9,-99.9,-99.9,0,0,100,30.06,30.03,39,-455,0,0.00
2013-3-30,75.0,73.6,73.0,-99.9,-99.9,-99.9,0,0,100,30.09,30.06,39,36,0,0.00
2013-3-31,79.0,76.8,75.0,78.0,-49.2,-99.9,99,28,98,30.09,30.03,34,30,0,0.00